createdAt,value
2019-05-11T00:00:54.738Z,13.50
2019-05-11T00:03:35.312Z,13.50
2019-05-11T00:06:15.996Z,13.50
2019-05-11T00:08:56.778Z,13.50
2019-05-11T00:11:37.256Z,13.40
2019-05-11T00:14:18.148Z,13.40
2019-05-11T00:16:58.944Z,13.40
2019-05-11T00:19:39.602Z,13.40
2019-05-11T00:22:20.429Z,13.30
2019-05-11T00:25:01.176Z,13.40
2019-05-11T00:27:41.660Z,13.30
2019-05-11T00:30:22.107Z,13.30
2019-05-11T00:33:02.536Z,13.20
2019-05-11T00:35:43.298Z,13.20
2019-05-11T00:38:24.666Z,13.20
2019-05-11T00:41:05.132Z,13.20
2019-05-11T00:43:46.096Z,13.10
2019-05-11T00:46:26.816Z,13.10
2019-05-11T00:49:07.433Z,13.10
2019-05-11T00:51:48.024Z,13.10
2019-05-11T00:54:29.051Z,13.10
2019-05-11T00:57:09.709Z,13.10
2019-05-11T00:59:50.671Z,13.10
2019-05-11T01:02:31.240Z,13.10
2019-05-11T01:05:11.678Z,13.10
2019-05-11T01:07:52.233Z,13.10
2019-05-11T01:10:41.646Z,13.10
2019-05-11T01:13:15.487Z,13.10
2019-05-11T01:15:56.237Z,13.10
2019-05-11T01:18:37.108Z,13.20
2019-05-11T01:21:17.717Z,13.20
2019-05-11T01:23:58.641Z,13.20
2019-05-11T01:26:39.430Z,13.10
2019-05-11T01:29:20.297Z,13.20
2019-05-11T01:32:01.178Z,13.20
2019-05-11T01:34:41.901Z,13.20
2019-05-11T01:37:22.852Z,13.20
2019-05-11T01:40:03.588Z,13.20
2019-05-11T01:42:44.100Z,13.20
2019-05-11T01:45:24.739Z,13.20
2019-05-11T01:48:05.292Z,13.20
2019-05-11T01:50:45.860Z,13.20
2019-05-11T01:53:26.841Z,13.20
2019-05-11T01:56:09.219Z,13.20
2019-05-11T01:58:50.216Z,13.20
2019-05-11T02:01:30.736Z,13.20
2019-05-11T02:04:11.512Z,13.20
2019-05-11T02:06:52.088Z,13.20
2019-05-11T02:09:32.606Z,13.20
2019-05-11T02:12:13.584Z,13.20
2019-05-11T02:14:54.107Z,13.20
2019-05-11T02:17:34.913Z,13.20
2019-05-11T02:20:15.520Z,13.20
2019-05-11T02:22:56.469Z,13.20
2019-05-11T02:25:37.639Z,13.10
2019-05-11T02:28:18.520Z,13.10
2019-05-11T02:30:58.850Z,13.00
2019-05-11T02:33:39.550Z,13.00
2019-05-11T02:36:20.200Z,13.00
2019-05-11T02:39:01.422Z,13.00
2019-05-11T02:41:42.991Z,13.00
2019-05-11T02:44:23.774Z,12.90
2019-05-11T02:47:04.714Z,12.90
2019-05-11T02:49:45.364Z,12.90
2019-05-11T02:52:25.938Z,12.90
2019-05-11T02:55:06.718Z,12.90
2019-05-11T02:57:47.341Z,12.90
2019-05-11T03:00:28.224Z,12.90
2019-05-11T03:03:09.182Z,12.90
2019-05-11T03:05:49.797Z,12.90
2019-05-11T03:08:30.343Z,12.90
2019-05-11T03:11:10.938Z,12.90
2019-05-11T03:13:51.588Z,12.90
2019-05-11T03:16:32.288Z,12.80
2019-05-11T03:19:12.900Z,12.80
2019-05-11T03:21:53.596Z,12.80
2019-05-11T03:24:33.937Z,12.80
2019-05-11T03:27:14.899Z,12.80
2019-05-11T03:30:00.242Z,12.80
2019-05-11T03:32:37.729Z,12.70
2019-05-11T03:35:18.628Z,12.70
2019-05-11T03:37:59.510Z,12.70
2019-05-11T03:40:40.247Z,12.60
2019-05-11T03:43:21.123Z,12.40
2019-05-11T03:46:01.776Z,12.40
2019-05-11T03:48:42.397Z,12.40
2019-05-11T03:51:23.630Z,12.40
2019-05-11T03:54:04.649Z,12.40
2019-05-11T03:56:45.729Z,12.40
2019-05-11T03:59:25.908Z,12.50
2019-05-11T04:02:06.423Z,12.50
2019-05-11T04:04:47.086Z,12.50
2019-05-11T04:07:28.140Z,12.50
2019-05-11T04:10:08.817Z,12.50
2019-05-11T04:12:49.189Z,12.50
2019-05-11T04:15:30.030Z,12.50
2019-05-11T04:18:10.521Z,12.50
2019-05-11T04:20:51.056Z,12.50
2019-05-11T04:23:31.677Z,12.50
2019-05-11T04:26:12.283Z,12.50
2019-05-11T04:28:52.862Z,12.50
2019-05-11T04:31:33.273Z,12.50
2019-05-11T04:34:14.037Z,12.50
2019-05-11T04:36:54.846Z,12.50
2019-05-11T04:39:35.801Z,12.40
2019-05-11T04:42:16.407Z,12.40
2019-05-11T04:44:56.952Z,12.50
2019-05-11T04:50:22.316Z,12.50
2019-05-11T04:53:02.502Z,12.50
2019-05-11T04:55:43.196Z,12.60
2019-05-11T04:58:24.008Z,12.60
2019-05-11T05:01:04.771Z,12.60
2019-05-11T05:03:47.517Z,12.50
2019-05-11T05:06:28.304Z,12.50
2019-05-11T05:09:09.080Z,12.60
2019-05-11T05:11:49.684Z,12.60
2019-05-11T05:14:30.280Z,12.60
2019-05-11T05:17:11.264Z,12.60
2019-05-11T05:19:52.000Z,12.70
2019-05-11T05:22:32.288Z,12.70
2019-05-11T05:25:12.876Z,12.60
2019-05-11T05:27:53.388Z,12.70
2019-05-11T05:30:33.628Z,12.70
2019-05-11T05:33:14.319Z,12.70
2019-05-11T05:35:55.316Z,12.70
2019-05-11T05:38:35.923Z,12.70
2019-05-11T05:41:16.709Z,12.70
2019-05-11T05:43:57.416Z,12.70
2019-05-11T05:46:37.900Z,12.80
2019-05-11T05:49:18.645Z,12.80
2019-05-11T05:51:59.422Z,12.90
2019-05-11T05:54:39.894Z,13.00
2019-05-11T05:57:20.481Z,13.00
2019-05-11T06:00:01.193Z,13.00
2019-05-11T06:02:41.388Z,13.10
2019-05-11T06:05:21.816Z,13.10
2019-05-11T06:08:02.514Z,13.10
2019-05-11T06:10:43.416Z,13.10
2019-05-11T06:13:24.100Z,13.10
2019-05-11T06:16:04.736Z,13.20
2019-05-11T06:18:45.108Z,13.20
2019-05-11T06:21:25.995Z,13.30
2019-05-11T06:24:08.127Z,13.30
2019-05-11T06:26:48.418Z,13.40
2019-05-11T06:29:29.017Z,13.40
2019-05-11T06:32:09.336Z,13.40
2019-05-11T06:34:50.013Z,13.40
2019-05-11T06:37:30.813Z,13.40
2019-05-11T06:40:11.000Z,13.40
2019-05-11T06:42:51.508Z,13.40
2019-05-11T06:45:31.796Z,13.50
2019-05-11T06:48:12.388Z,13.60
2019-05-11T06:50:53.733Z,13.60
2019-05-11T06:53:34.280Z,13.70
2019-05-11T06:56:15.183Z,13.80
2019-05-11T06:58:55.980Z,13.80
2019-05-11T07:01:36.728Z,13.90
2019-05-11T07:04:17.412Z,13.90
2019-05-11T07:06:58.199Z,13.90
2019-05-11T07:09:38.777Z,14.00
2019-05-11T07:12:19.256Z,14.20
2019-05-11T07:15:00.612Z,14.40
2019-05-11T07:17:41.188Z,14.50
2019-05-11T07:20:21.431Z,14.70
2019-05-11T07:23:01.840Z,14.80
2019-05-11T07:25:42.296Z,14.80
2019-05-11T07:28:23.069Z,14.70
2019-05-11T07:31:03.614Z,14.70
2019-05-11T07:33:43.891Z,14.60
2019-05-11T07:36:24.755Z,14.60
2019-05-11T07:39:08.350Z,14.70
2019-05-11T07:41:49.039Z,14.70
2019-05-11T07:44:38.383Z,14.70
2019-05-11T07:47:13.068Z,14.80
2019-05-11T07:49:54.428Z,14.80
2019-05-11T07:52:34.979Z,14.70
2019-05-11T07:55:15.536Z,14.70
2019-05-11T07:57:58.402Z,14.80
2019-05-11T08:00:39.890Z,14.80
2019-05-11T08:03:20.648Z,14.80
2019-05-11T08:06:02.845Z,14.80
2019-05-11T08:08:43.924Z,14.80
2019-05-11T08:11:24.099Z,14.90
2019-05-11T08:14:04.481Z,14.90
2019-05-11T08:16:44.993Z,14.90
2019-05-11T08:19:28.076Z,15.00
2019-05-11T08:22:08.588Z,15.10
2019-05-11T08:24:49.476Z,15.10
2019-05-11T08:27:30.133Z,15.10
2019-05-11T08:30:10.717Z,15.20
2019-05-11T08:32:51.360Z,15.20
2019-05-11T08:35:31.886Z,15.20
2019-05-11T08:38:12.456Z,15.10
2019-05-11T08:40:53.302Z,15.20
2019-05-11T08:43:34.013Z,15.10
2019-05-11T08:46:14.955Z,15.10
2019-05-11T08:48:55.556Z,15.00
2019-05-11T08:51:38.603Z,15.00
2019-05-11T08:54:18.772Z,15.00
2019-05-11T08:56:59.564Z,15.00
2019-05-11T08:59:39.972Z,15.00
2019-05-11T09:02:20.558Z,15.00
2019-05-11T09:05:01.348Z,15.00
2019-05-11T09:07:42.124Z,15.00
2019-05-11T09:10:22.405Z,15.10
2019-05-11T09:13:03.308Z,15.20
2019-05-11T09:15:43.728Z,15.30
2019-05-11T09:18:23.927Z,15.50
2019-05-11T09:21:04.280Z,15.70
2019-05-11T09:23:44.993Z,16.00
2019-05-11T09:26:25.660Z,16.10
2019-05-11T09:29:08.483Z,16.20
2019-05-11T09:31:48.843Z,16.40
2019-05-11T09:34:29.167Z,16.50
2019-05-11T09:37:09.624Z,16.50
2019-05-11T09:39:50.380Z,16.50
2019-05-11T09:42:31.084Z,16.70
2019-05-11T09:45:11.706Z,16.70
2019-05-11T09:47:52.413Z,16.70
2019-05-11T09:50:32.680Z,16.70
2019-05-11T09:53:13.304Z,16.70
2019-05-11T09:55:53.781Z,16.60
2019-05-11T09:58:34.788Z,16.60
2019-05-11T10:01:15.384Z,16.70
2019-05-11T10:03:57.868Z,16.70
2019-05-11T10:06:38.974Z,16.60
2019-05-11T10:09:19.869Z,16.60
2019-05-11T10:12:00.544Z,16.60
2019-05-11T10:14:41.135Z,16.40
2019-05-11T10:17:21.932Z,16.30
2019-05-11T10:20:02.742Z,16.20
2019-05-11T10:22:43.513Z,16.10
2019-05-11T10:25:24.205Z,16.10
2019-05-11T10:28:04.764Z,16.10
2019-05-11T10:30:45.222Z,16.10
2019-05-11T10:33:27.973Z,16.00
2019-05-11T10:36:08.439Z,16.00
2019-05-11T10:38:49.098Z,16.00
2019-05-11T10:41:29.707Z,16.00
2019-05-11T10:44:10.116Z,15.90
2019-05-11T10:46:50.560Z,15.80
2019-05-11T10:49:31.502Z,15.80
2019-05-11T10:52:12.516Z,15.90
2019-05-11T10:54:53.016Z,16.20
2019-05-11T10:57:33.452Z,16.40
2019-05-11T11:00:14.220Z,16.70
2019-05-11T11:02:54.854Z,17.20
2019-05-11T11:05:38.267Z,17.80
2019-05-11T11:08:18.852Z,18.70
2019-05-11T11:10:59.225Z,19.40
2019-05-11T11:13:39.851Z,20.00
2019-05-11T11:16:35.591Z,20.50
2019-05-11T11:19:03.064Z,21.00
2019-05-11T11:21:43.824Z,21.40
2019-05-11T11:24:24.693Z,21.00
2019-05-11T11:27:08.590Z,20.50
2019-05-11T11:29:47.902Z,20.00
2019-05-11T11:32:28.875Z,19.40
2019-05-11T11:35:09.308Z,18.80
2019-05-11T11:37:50.628Z,18.30
2019-05-11T11:40:31.157Z,17.80
2019-05-11T11:43:11.639Z,17.40
2019-05-11T11:45:52.669Z,17.10
2019-05-11T11:48:33.165Z,16.80
2019-05-11T11:51:14.158Z,16.40
2019-05-11T11:53:54.912Z,16.20
2019-05-11T11:56:37.743Z,16.00
2019-05-11T11:59:18.096Z,15.80
2019-05-11T12:01:59.045Z,15.60
2019-05-11T12:04:40.164Z,15.60
2019-05-11T12:07:21.330Z,15.60
2019-05-11T12:10:01.826Z,15.70
2019-05-11T12:12:42.556Z,15.70
2019-05-11T12:15:23.136Z,15.60
2019-05-11T12:18:03.924Z,15.60
2019-05-11T12:20:44.320Z,15.70
2019-05-11T12:23:25.132Z,15.70
2019-05-11T12:26:05.780Z,15.50
2019-05-11T12:28:48.752Z,15.30
2019-05-11T12:31:32.527Z,15.40
2019-05-11T12:34:11.849Z,15.50
2019-05-11T12:36:52.671Z,15.60
2019-05-11T12:39:38.516Z,15.70
2019-05-11T12:42:18.744Z,15.90
2019-05-11T12:44:59.340Z,16.10
2019-05-11T12:47:39.545Z,16.30
2019-05-11T12:50:20.572Z,16.70
2019-05-11T12:53:00.964Z,17.00
2019-05-11T12:55:41.881Z,17.30
2019-05-11T12:58:22.725Z,17.40
2019-05-11T13:01:03.121Z,17.30
2019-05-11T13:03:43.880Z,17.10
2019-05-11T13:06:24.380Z,16.90
2019-05-11T13:09:07.661Z,16.80
2019-05-11T13:11:48.751Z,16.70
2019-05-11T13:14:29.717Z,16.60
2019-05-11T13:17:10.396Z,16.60
2019-05-11T13:19:50.888Z,16.80
2019-05-11T13:22:31.732Z,16.80
2019-05-11T13:25:12.252Z,17.00
2019-05-11T13:27:53.191Z,17.00
2019-05-11T13:30:33.444Z,17.10
2019-05-11T13:33:14.051Z,17.20
2019-05-11T13:35:54.869Z,17.30
2019-05-11T13:38:35.931Z,17.40
2019-05-11T13:41:18.863Z,17.40
2019-05-11T13:43:59.463Z,17.40
2019-05-11T13:46:39.822Z,17.60
2019-05-11T13:49:20.273Z,17.60
2019-05-11T13:52:00.784Z,17.60
2019-05-11T13:54:41.579Z,17.50
2019-05-11T13:57:22.205Z,17.30
2019-05-11T14:00:03.064Z,17.30
2019-05-11T14:02:43.936Z,17.30
2019-05-11T14:05:24.772Z,17.40
2019-05-11T14:08:05.272Z,17.40
2019-05-11T14:10:45.988Z,17.30
2019-05-11T14:13:28.618Z,17.40
2019-05-11T14:16:09.408Z,17.40
2019-05-11T14:18:50.116Z,17.50
2019-05-11T14:21:31.108Z,17.40
2019-05-11T14:24:11.954Z,17.50
2019-05-11T14:26:52.781Z,17.30
2019-05-11T14:29:33.654Z,17.10
2019-05-11T14:32:14.344Z,17.10
2019-05-11T14:34:57.977Z,16.90
2019-05-11T14:37:38.349Z,16.70
2019-05-11T14:40:19.200Z,16.50
2019-05-11T14:42:59.704Z,16.30
2019-05-11T14:45:40.364Z,16.10
2019-05-11T14:48:26.273Z,15.90
2019-05-11T14:51:04.428Z,15.70
2019-05-11T14:53:47.913Z,15.50
2019-05-11T14:56:28.070Z,15.40
2019-05-11T14:59:09.199Z,15.40
2019-05-11T15:01:50.408Z,15.40
2019-05-11T15:04:31.170Z,15.40
2019-05-11T15:07:11.916Z,15.40
2019-05-11T15:09:52.364Z,15.20
2019-05-11T15:12:32.868Z,15.10
2019-05-11T15:15:13.471Z,15.10
2019-05-11T15:17:54.000Z,15.10
2019-05-11T15:20:34.356Z,14.90
2019-05-11T15:23:14.832Z,14.80
2019-05-11T15:25:55.403Z,14.80
2019-05-11T15:28:37.898Z,14.70
2019-05-11T15:31:22.365Z,14.60
2019-05-11T15:34:01.412Z,14.50
2019-05-11T15:36:44.072Z,14.40
2019-05-11T15:39:24.811Z,14.30
2019-05-11T15:42:09.803Z,14.30
2019-05-11T15:44:48.476Z,14.20
2019-05-11T15:47:30.662Z,14.20
2019-05-11T15:50:11.199Z,14.10
2019-05-11T15:52:51.593Z,14.10
2019-05-11T15:55:32.500Z,14.00
2019-05-11T15:58:13.456Z,14.00
2019-05-11T16:00:54.453Z,13.90
2019-05-11T16:03:34.908Z,13.90
2019-05-11T16:06:15.513Z,13.80
2019-05-11T16:08:58.429Z,13.80
2019-05-11T16:11:39.009Z,13.80
2019-05-11T16:14:19.488Z,13.70
2019-05-11T16:16:59.972Z,13.60
2019-05-11T16:19:41.135Z,13.50
2019-05-11T16:22:21.588Z,13.40
2019-05-11T16:25:02.489Z,13.40
2019-05-11T16:27:43.709Z,13.30
2019-05-11T16:30:24.480Z,13.20
2019-05-11T16:33:05.136Z,13.10
2019-05-11T16:35:45.435Z,13.20
2019-05-11T16:38:25.951Z,13.20
2019-05-11T16:41:06.324Z,13.20
2019-05-11T16:43:47.983Z,13.20
2019-05-11T16:46:28.668Z,13.30
2019-05-11T16:49:13.625Z,13.20
2019-05-11T16:51:52.073Z,13.20
2019-05-11T16:54:32.974Z,13.30
2019-05-11T16:57:13.997Z,13.20
2019-05-11T16:59:54.713Z,13.30
2019-05-11T17:02:37.804Z,13.20
2019-05-11T17:05:26.334Z,13.10
2019-05-11T17:08:01.134Z,13.10
2019-05-11T17:10:43.596Z,13.00
2019-05-11T17:13:24.233Z,13.00
2019-05-11T17:16:05.536Z,13.00
2019-05-11T17:18:48.440Z,13.00
2019-05-11T17:21:29.772Z,13.00
2019-05-11T17:24:10.940Z,12.90
2019-05-11T17:26:51.433Z,12.90
2019-05-11T17:29:32.612Z,12.90
2019-05-11T17:32:13.132Z,12.90
2019-05-11T17:34:53.624Z,12.80
2019-05-11T17:37:34.639Z,12.80
2019-05-11T17:40:15.392Z,12.80
2019-05-11T17:42:58.361Z,12.80
2019-05-11T17:45:38.577Z,12.80
2019-05-11T17:48:18.912Z,12.80
2019-05-11T17:50:59.404Z,12.70
2019-05-11T17:53:40.120Z,12.80
2019-05-11T17:56:21.001Z,12.80
2019-05-11T17:59:01.543Z,12.70
2019-05-11T18:01:42.224Z,12.70
2019-05-11T18:04:22.469Z,12.70
2019-05-11T18:07:03.061Z,12.60
2019-05-11T18:09:43.556Z,12.50
2019-05-11T18:12:24.387Z,12.50
2019-05-11T18:15:07.971Z,12.40
2019-05-11T18:17:48.963Z,12.30
2019-05-11T18:20:29.790Z,12.20
2019-05-11T18:23:10.110Z,12.20
2019-05-11T18:25:50.820Z,12.20
2019-05-11T18:28:31.408Z,12.10
2019-05-11T18:31:12.052Z,12.00
2019-05-11T18:33:52.624Z,11.90
2019-05-11T18:36:32.824Z,11.90
2019-05-11T18:39:13.205Z,11.80
2019-05-11T18:41:53.751Z,11.80
2019-05-11T18:44:34.312Z,11.70
2019-05-11T18:47:14.660Z,11.60
2019-05-11T18:49:54.921Z,11.70
2019-05-11T18:52:35.456Z,11.70
2019-05-11T18:55:18.695Z,11.70
2019-05-11T18:57:58.872Z,11.70
2019-05-11T19:00:39.095Z,11.70
2019-05-11T19:03:19.886Z,11.70
2019-05-11T19:06:00.348Z,11.70
2019-05-11T19:08:40.991Z,11.70
2019-05-11T19:11:21.456Z,11.60
2019-05-11T19:14:02.196Z,11.60
2019-05-11T19:16:42.993Z,11.50
2019-05-11T19:19:23.484Z,11.40
2019-05-11T19:22:04.028Z,11.30
2019-05-11T19:24:44.636Z,11.30
2019-05-11T19:27:24.857Z,11.30
2019-05-11T19:30:07.824Z,11.20
2019-05-11T19:32:48.731Z,11.30
2019-05-11T19:35:29.602Z,11.30
2019-05-11T19:38:10.168Z,11.30
2019-05-11T19:40:50.652Z,11.20
2019-05-11T19:43:31.340Z,11.20
2019-05-11T19:46:11.583Z,11.20
2019-05-11T19:48:51.968Z,11.20
2019-05-11T19:51:32.795Z,11.20
2019-05-11T19:54:13.316Z,11.10
2019-05-11T19:56:53.624Z,11.20
2019-05-11T19:59:34.044Z,11.10
2019-05-11T20:02:14.576Z,11.10
2019-05-11T20:04:55.188Z,11.00
2019-05-11T20:07:37.821Z,10.90
2019-05-11T20:10:19.094Z,10.90
2019-05-11T20:13:00.056Z,10.80
2019-05-11T20:15:40.756Z,10.80
2019-05-11T20:18:21.216Z,10.70
2019-05-11T20:21:15.498Z,10.60
2019-05-11T20:23:43.960Z,10.60
2019-05-11T20:26:24.732Z,10.50
2019-05-11T20:29:05.396Z,10.50
2019-05-11T20:31:45.952Z,10.40
2019-05-11T20:34:28.774Z,10.40
2019-05-11T20:37:09.061Z,10.30
2019-05-11T20:39:50.149Z,10.20
2019-05-11T20:42:30.568Z,10.10
2019-05-11T20:45:11.152Z,10.00
2019-05-11T20:47:51.974Z,10.00
2019-05-11T20:50:32.385Z,10.00
2019-05-11T20:53:12.852Z,9.90
2019-05-11T20:55:53.127Z,9.90
2019-05-11T20:58:35.580Z,9.90
2019-05-11T21:01:17.908Z,9.80
2019-05-11T21:03:58.914Z,9.70
2019-05-11T21:06:39.460Z,9.70
2019-05-11T21:09:19.795Z,9.70
2019-05-11T21:12:03.055Z,9.60
2019-05-11T21:14:42.845Z,9.60
2019-05-11T21:17:23.378Z,9.60
2019-05-11T21:20:04.631Z,9.60
2019-05-11T21:22:45.572Z,9.60
2019-05-11T21:25:28.493Z,9.60
2019-05-11T21:28:08.616Z,9.60
2019-05-11T21:30:49.845Z,9.50
2019-05-11T21:33:30.396Z,9.50
2019-05-11T21:36:11.072Z,9.40
2019-05-11T21:38:51.772Z,9.30
2019-05-11T21:41:32.463Z,9.20
2019-05-11T21:44:13.140Z,9.10
2019-05-11T21:46:53.481Z,9.10
2019-05-11T21:49:33.969Z,9.00
2019-05-11T21:52:14.447Z,9.00
2019-05-11T21:54:54.912Z,8.90
2019-05-11T21:57:35.508Z,8.90
2019-05-11T22:00:15.861Z,8.80
2019-05-11T22:02:56.480Z,8.70
2019-05-11T22:05:38.125Z,8.60
2019-05-11T22:08:19.065Z,8.60
2019-05-11T22:11:00.128Z,8.50
2019-05-11T22:13:41.156Z,8.50
2019-05-11T22:16:22.320Z,8.40
2019-05-11T22:19:03.292Z,8.40
2019-05-11T22:21:43.955Z,8.30
2019-05-11T22:24:24.691Z,8.30
2019-05-11T22:27:05.240Z,8.20
2019-05-11T22:29:45.765Z,8.20
2019-05-11T22:32:28.523Z,8.10
2019-05-11T22:35:09.270Z,8.00
2019-05-11T22:37:50.101Z,8.00
2019-05-11T22:40:30.564Z,8.00
2019-05-11T22:43:11.384Z,7.90
2019-05-11T22:45:51.800Z,7.90
2019-05-11T22:48:32.465Z,7.90
2019-05-11T22:51:13.080Z,7.90
2019-05-11T22:53:54.003Z,7.80
2019-05-11T22:56:34.844Z,7.80
2019-05-11T22:59:15.468Z,7.80
2019-05-11T23:01:55.884Z,7.80
2019-05-11T23:04:38.095Z,7.80
2019-05-11T23:07:19.116Z,7.80
2019-05-11T23:10:00.622Z,7.80
2019-05-11T23:12:41.351Z,7.80
2019-05-11T23:15:22.136Z,7.80
2019-05-11T23:18:02.999Z,7.80
2019-05-11T23:20:43.500Z,7.80
2019-05-11T23:23:24.617Z,7.80
2019-05-11T23:26:05.284Z,7.80
2019-05-11T23:28:48.494Z,7.80
2019-05-11T23:31:28.313Z,7.60
2019-05-11T23:34:09.274Z,7.60
2019-05-11T23:36:50.460Z,7.50
2019-05-11T23:39:30.996Z,7.40
2019-05-11T23:42:11.638Z,7.40
2019-05-11T23:44:52.476Z,7.20
2019-05-11T23:47:33.096Z,7.10
2019-05-11T23:50:13.964Z,7.00
2019-05-11T23:53:06.010Z,7.00
2019-05-11T23:55:38.062Z,7.00
2019-05-11T23:58:19.363Z,6.90
